YPCC

Cocos (Keeling) Islands Airport

Cocos (Keeling) Islands, Australia
METAR YPCC 192230Z AUTO 10016KT 9999 // NCD 25/20 Q1012
Observed Flight Rules
Aug-19 @ 22:30 UTC (38 minutes ago) Visual Flight Rules
Wind Visibility Clouds
100° at 16 knots 10,000+ meters
  • Clear skies
Temperatures Readings
Current 25°C / 77°F
Dewpoint 20°C / 68°F
Humidity 74%
Altimeter 29.88" Hg
Pressure 1012 hPa
Elevation 3
METAR YPCC 192230Z AUTO 10016KT 9999 // NCD 25/20 Q1012
Observed Flight Rules
Aug-19 @ 22:30 UTC
(38 minutes ago)
VFR
Wind Visibility
100° at 16 knots 10,000+ meters
Clouds
  • Clear skies
Temperature Dewpoint
25°C / 77°F 20°C / 68°F
Humidity Altimeter Pressure
74% 29.88" Hg 1012 hPa